createdAt,value
2017-03-21T00:00:14.933Z,87.41
2017-03-21T00:00:55.571Z,87.23
2017-03-21T00:01:36.241Z,87.79
2017-03-21T00:02:17.901Z,87.79
2017-03-21T00:02:58.568Z,87.51
2017-03-21T00:03:39.158Z,87.7
2017-03-21T00:04:19.771Z,87.6
2017-03-21T00:05:00.488Z,87.79
2017-03-21T00:05:41.091Z,87.98
2017-03-21T00:06:21.735Z,87.7
2017-03-21T00:07:02.406Z,87.98
2017-03-21T00:07:43.042Z,87.79
2017-03-21T00:08:24.787Z,87.89
2017-03-21T00:09:05.876Z,87.98
2017-03-21T00:09:46.540Z,87.89
2017-03-21T00:10:27.223Z,87.7
2017-03-21T00:11:08.880Z,87.7
2017-03-21T00:11:49.574Z,87.7
2017-03-21T00:12:30.201Z,87.89
2017-03-21T00:13:10.830Z,87.7
2017-03-21T00:13:51.496Z,87.7
2017-03-21T00:14:32.160Z,87.79
2017-03-21T00:15:12.796Z,88.27
2017-03-21T00:15:53.491Z,88.18
2017-03-21T00:16:34.085Z,88.37
2017-03-21T00:17:14.747Z,88.37
2017-03-21T00:17:55.393Z,88.18
2017-03-21T00:18:36.003Z,88.37
2017-03-21T00:19:16.606Z,88.27
2017-03-21T00:19:57.179Z,88.37
2017-03-21T00:20:38.844Z,88.18
2017-03-21T00:21:19.524Z,88.18
2017-03-21T00:22:00.126Z,88.18
2017-03-21T00:22:40.678Z,88.27
2017-03-21T00:23:21.342Z,87.98
2017-03-21T00:24:02.002Z,88.08
2017-03-21T00:24:42.690Z,88.37
2017-03-21T00:25:23.306Z,88.08
2017-03-21T00:26:03.953Z,88.18
2017-03-21T00:26:44.616Z,88.37
2017-03-21T00:27:25.256Z,87.98
2017-03-21T00:28:05.920Z,88.65
2017-03-21T00:28:46.613Z,88.65
2017-03-21T00:29:28.247Z,88.46
2017-03-21T00:30:08.942Z,88.46
2017-03-21T00:30:49.586Z,88.56
2017-03-21T00:31:30.226Z,88.37
2017-03-21T00:32:10.864Z,88.27
2017-03-21T00:32:51.631Z,88.46
2017-03-21T00:33:32.283Z,88.46
2017-03-21T00:34:13.381Z,88.46
2017-03-21T00:34:53.954Z,88.46
2017-03-21T00:35:34.535Z,88.18
2017-03-21T00:36:15.159Z,88.18
2017-03-21T00:36:56.799Z,88.46
2017-03-21T00:37:37.492Z,88.46
2017-03-21T00:38:18.044Z,88.84
2017-03-21T00:38:58.730Z,88.75
2017-03-21T00:39:39.415Z,88.37
2017-03-21T00:40:20.001Z,88.37
2017-03-21T00:41:00.563Z,88.46
2017-03-21T00:41:41.219Z,88.46
2017-03-21T00:42:21.806Z,88.75
2017-03-21T00:43:02.409Z,88.56
2017-03-21T00:43:42.984Z,88.65
2017-03-21T00:44:23.631Z,88.37
2017-03-21T00:45:04.237Z,88.84
2017-03-21T00:45:44.917Z,88.46
2017-03-21T00:46:25.511Z,88.84
2017-03-21T00:47:06.155Z,88.84
2017-03-21T00:47:46.904Z,89.32
2017-03-21T00:48:27.537Z,89.13
2017-03-21T00:49:08.093Z,89.41
2017-03-21T00:49:48.663Z,89.13
2017-03-21T00:50:29.373Z,89.13
2017-03-21T00:51:10.038Z,89.13
2017-03-21T00:51:50.628Z,88.93
2017-03-21T00:52:31.278Z,88.93
2017-03-21T00:53:11.966Z,89.41
2017-03-21T00:53:52.536Z,89.41
2017-03-21T00:54:33.393Z,89.13
2017-03-21T00:55:14.079Z,88.93
2017-03-21T00:55:54.646Z,89.32
2017-03-21T00:56:35.294Z,89.32
2017-03-21T00:57:15.938Z,89.47
2017-03-21T00:57:56.535Z,89.61
2017-03-21T00:58:38.166Z,89.41
2017-03-21T00:59:18.846Z,89.61
2017-03-21T01:00:01.961Z,89.32
2017-03-21T01:00:45.823Z,89.65
2017-03-21T01:01:30.111Z,89.98
2017-03-21T01:02:15.855Z,90.03
2017-03-21T01:02:58.465Z,90.22
2017-03-21T01:03:41.400Z,90.03
2017-03-21T01:04:24.258Z,90.03
2017-03-21T01:05:04.832Z,90.7
2017-03-21T01:05:45.489Z,90.8
2017-03-21T01:06:26.163Z,90.7
2017-03-21T01:07:06.795Z,90.42
2017-03-21T01:07:47.439Z,90.61
2017-03-21T01:08:28.142Z,90.42
2017-03-21T01:09:08.763Z,90.8
2017-03-21T01:09:49.399Z,91.37
2017-03-21T01:10:30.055Z,91.08
2017-03-21T01:11:10.627Z,91.17
2017-03-21T01:11:51.269Z,90.99
2017-03-21T01:12:31.950Z,91.27
2017-03-21T01:13:12.570Z,90.7
2017-03-21T01:13:53.225Z,90.89
2017-03-21T01:14:33.878Z,90.7
2017-03-21T01:15:14.518Z,91.08
2017-03-21T01:15:55.175Z,90.7
2017-03-21T01:16:35.852Z,91.08
2017-03-21T01:17:16.505Z,91.17
2017-03-21T01:17:57.140Z,91.27
2017-03-21T01:18:37.825Z,90.99
2017-03-21T01:19:18.434Z,91.37
2017-03-21T01:19:59.137Z,91.65
2017-03-21T01:20:39.751Z,91.46
2017-03-21T01:21:20.431Z,91.56
2017-03-21T01:22:01.050Z,91.65
2017-03-21T01:22:41.714Z,91.75
2017-03-21T01:23:22.377Z,91.65
2017-03-21T01:24:04.034Z,92.22
2017-03-21T01:24:44.668Z,91.75
2017-03-21T01:25:25.239Z,91.84
2017-03-21T01:26:05.890Z,91.75
2017-03-21T01:26:46.582Z,92.22
2017-03-21T01:27:27.179Z,92.03
2017-03-21T01:28:07.751Z,92.22
2017-03-21T01:28:48.415Z,92.6
2017-03-21T01:29:29.073Z,92.6
2017-03-21T01:30:09.728Z,92.32
2017-03-21T01:30:50.364Z,92.6
2017-03-21T01:31:31.011Z,92.41
2017-03-21T01:32:11.680Z,92.41
2017-03-21T01:32:52.316Z,92.6
2017-03-21T01:33:32.991Z,92.89
2017-03-21T01:34:13.620Z,92.7
2017-03-21T01:34:54.274Z,92.89
2017-03-21T01:35:34.941Z,92.79
2017-03-21T01:36:15.584Z,92.7
2017-03-21T01:36:56.250Z,92.7
2017-03-21T01:37:36.922Z,92.89
2017-03-21T01:38:17.540Z,93.08
2017-03-21T01:38:58.178Z,92.6
2017-03-21T01:39:38.752Z,92.79
2017-03-21T01:40:19.384Z,93.55
2017-03-21T01:41:00.036Z,93.55
2017-03-21T01:41:40.601Z,93.37
2017-03-21T01:42:21.267Z,93.46
2017-03-21T01:43:01.901Z,93.18
2017-03-21T01:43:42.468Z,93.18
2017-03-21T01:44:23.112Z,93.37
2017-03-21T01:45:03.710Z,93.18
2017-03-21T01:45:44.297Z,93.27
2017-03-21T01:46:24.865Z,93.27
2017-03-21T01:47:05.531Z,93.55
2017-03-21T01:47:46.247Z,93.55
2017-03-21T01:48:26.902Z,93.27
2017-03-21T01:49:07.476Z,93.18
2017-03-21T01:49:48.147Z,93.18
2017-03-21T01:50:28.848Z,93.18
2017-03-21T01:51:09.531Z,93.46
2017-03-21T01:51:50.106Z,93.55
2017-03-21T01:52:30.755Z,93.55
2017-03-21T01:53:11.474Z,93.55
2017-03-21T01:53:52.145Z,93.74
2017-03-21T01:54:32.807Z,93.55
2017-03-21T01:55:13.436Z,93.65
2017-03-21T01:55:54.108Z,93.46
2017-03-21T01:56:34.757Z,93.37
2017-03-21T01:57:15.830Z,93.74
2017-03-21T01:57:56.468Z,94.03
2017-03-21T01:58:37.089Z,94.32
2017-03-21T01:59:17.694Z,93.74
2017-03-21T01:59:58.348Z,93.84
2017-03-21T02:00:39.002Z,93.94
2017-03-21T02:01:19.654Z,93.84
2017-03-21T02:02:00.298Z,93.74
2017-03-21T02:02:42.025Z,93.74
2017-03-21T02:03:22.653Z,93.84
2017-03-21T02:04:03.300Z,93.94
2017-03-21T02:04:43.951Z,94.42
2017-03-21T02:05:24.606Z,94.03
2017-03-21T02:06:05.265Z,94.32
2017-03-21T02:06:46.937Z,94.22
2017-03-21T02:07:27.614Z,94.13
2017-03-21T02:08:08.216Z,94.42
2017-03-21T02:08:48.954Z,93.84
2017-03-21T02:09:29.538Z,94.03
2017-03-21T02:10:10.179Z,94.22
2017-03-21T02:10:50.866Z,94.22
2017-03-21T02:11:31.512Z,94.22
2017-03-21T02:12:12.150Z,94.32
2017-03-21T02:12:52.782Z,94.13
2017-03-21T02:13:33.457Z,94.22
2017-03-21T02:14:14.109Z,94.32
2017-03-21T02:14:54.763Z,94.32
2017-03-21T02:15:35.416Z,94.13
2017-03-21T02:16:16.102Z,94.42
2017-03-21T02:16:56.725Z,94.42
2017-03-21T02:17:38.410Z,94.22
2017-03-21T02:18:20.076Z,94.42
2017-03-21T02:19:00.741Z,94.42
2017-03-21T02:19:42.451Z,94.22
2017-03-21T02:20:23.068Z,94.22
2017-03-21T02:21:04.720Z,94.22
2017-03-21T02:21:45.384Z,94.32
2017-03-21T02:22:26.040Z,93.94
2017-03-21T02:23:06.678Z,94.22
2017-03-21T02:23:47.355Z,94.03
2017-03-21T02:24:28.033Z,93.94
2017-03-21T02:25:08.637Z,93.94
2017-03-21T02:25:49.212Z,94.13
2017-03-21T02:26:30.886Z,94.79
2017-03-21T02:27:11.587Z,94.51
2017-03-21T02:27:52.276Z,94.51
2017-03-21T02:28:32.854Z,94.6
2017-03-21T02:29:13.582Z,94.7
2017-03-21T02:29:54.224Z,94.79
2017-03-21T02:30:34.802Z,94.6
2017-03-21T02:31:15.461Z,94.6
2017-03-21T02:31:56.129Z,94.6
2017-03-21T02:32:36.722Z,94.6
2017-03-21T02:33:17.429Z,94.79
2017-03-21T02:33:58.072Z,94.79
2017-03-21T02:34:38.663Z,94.89
2017-03-21T02:35:19.257Z,94.89
2017-03-21T02:35:59.891Z,94.6
2017-03-21T02:36:40.857Z,94.6
2017-03-21T02:37:21.516Z,94.79
2017-03-21T02:38:02.172Z,94.42
2017-03-21T02:38:42.726Z,94.6
2017-03-21T02:39:23.380Z,95.08
2017-03-21T02:40:04.042Z,94.98
2017-03-21T02:40:44.667Z,94.89
2017-03-21T02:41:25.229Z,94.89
2017-03-21T02:42:05.913Z,95.27
2017-03-21T02:42:46.586Z,95.03
2017-03-21T02:43:27.190Z,94.79
2017-03-21T02:44:07.824Z,95.08
2017-03-21T02:44:48.478Z,94.98
2017-03-21T02:45:29.532Z,94.84
2017-03-21T02:46:10.156Z,95.36
2017-03-21T02:46:50.775Z,94.89
2017-03-21T02:47:31.815Z,94.98
2017-03-21T02:48:12.533Z,94.6
2017-03-21T02:48:53.157Z,94.98
2017-03-21T02:49:33.825Z,95.46
2017-03-21T02:50:14.428Z,95.17
2017-03-21T02:50:55.038Z,95.22
2017-03-21T02:51:35.663Z,95.32
2017-03-21T02:52:16.243Z,95.12
2017-03-21T02:52:56.873Z,94.93
2017-03-21T02:53:37.496Z,94.93
2017-03-21T02:54:18.134Z,95.22
2017-03-21T02:54:59.206Z,95.22
2017-03-21T02:55:39.861Z,95.22
2017-03-21T02:56:20.522Z,95.32
2017-03-21T02:57:01.175Z,95.03
2017-03-21T02:57:41.813Z,95.79
2017-03-21T02:58:22.460Z,95.79
2017-03-21T02:59:03.026Z,95.6
2017-03-21T02:59:43.706Z,95.98
2017-03-21T03:00:24.319Z,95.6
2017-03-21T03:01:04.913Z,95.79
2017-03-21T03:01:45.571Z,95.89
2017-03-21T03:02:26.168Z,95.6
2017-03-21T03:03:06.725Z,95.51
2017-03-21T03:03:47.358Z,95.6
2017-03-21T03:04:27.983Z,96.08
2017-03-21T03:05:08.599Z,96.08
2017-03-21T03:05:49.233Z,95.6
2017-03-21T03:06:29.802Z,96.08
2017-03-21T03:07:11.487Z,95.79
2017-03-21T03:07:52.140Z,95.79
2017-03-21T03:08:32.763Z,95.98
2017-03-21T03:09:13.372Z,95.79
2017-03-21T03:09:53.987Z,95.98
2017-03-21T03:10:34.535Z,96.08
2017-03-21T03:11:15.188Z,95.89
2017-03-21T03:11:55.847Z,95.98
2017-03-21T03:12:36.416Z,95.79
2017-03-21T03:13:17.256Z,96.46
2017-03-21T03:13:58.166Z,96.36
2017-03-21T03:14:38.744Z,96.36
2017-03-21T03:15:19.406Z,96.08
2017-03-21T03:16:00.061Z,96.03
2017-03-21T03:16:40.704Z,96.22
2017-03-21T03:17:21.609Z,96.5
2017-03-21T03:18:02.280Z,96.22
2017-03-21T03:18:42.923Z,96.31
2017-03-21T03:19:23.524Z,96.5
2017-03-21T03:20:04.154Z,96.22
2017-03-21T03:20:44.953Z,96.6
2017-03-21T03:21:25.535Z,96.69
2017-03-21T03:22:06.131Z,96.41
2017-03-21T03:22:46.701Z,96.22
2017-03-21T03:23:27.354Z,96.69
2017-03-21T03:24:08.977Z,96.79
2017-03-21T03:24:50.645Z,96.5
2017-03-21T03:25:31.381Z,97.12
2017-03-21T03:26:12.075Z,96.69
2017-03-21T03:26:53.747Z,97.12
2017-03-21T03:27:35.416Z,97.12
2017-03-21T03:28:17.185Z,97.12
2017-03-21T03:28:57.746Z,97.03
2017-03-21T03:29:38.400Z,96.84
2017-03-21T03:30:19.038Z,97.03
2017-03-21T03:30:59.711Z,96.93
2017-03-21T03:31:40.352Z,97.41
2017-03-21T03:32:21.027Z,97.12
2017-03-21T03:33:01.666Z,97.41
2017-03-21T03:33:42.326Z,97.03
2017-03-21T03:34:23.012Z,97.12
2017-03-21T03:35:03.627Z,97.22
2017-03-21T03:35:44.348Z,97.22
2017-03-21T03:36:24.964Z,97.31
2017-03-21T03:37:05.554Z,97.5
2017-03-21T03:37:46.392Z,97.78
2017-03-21T03:38:27.002Z,97.31
2017-03-21T03:39:07.584Z,97.88
2017-03-21T03:39:48.144Z,97.03
2017-03-21T03:40:28.796Z,97.5
2017-03-21T03:41:09.555Z,97.88
2017-03-21T03:41:50.187Z,97.31
2017-03-21T03:42:30.759Z,97.88
2017-03-21T03:43:11.440Z,97.31
2017-03-21T03:43:52.042Z,97.97
2017-03-21T03:44:32.663Z,97.36
2017-03-21T03:45:13.272Z,97.31
2017-03-21T03:45:53.909Z,97.88
2017-03-21T03:46:34.476Z,98.12
2017-03-21T03:47:15.123Z,97.45
2017-03-21T03:47:55.780Z,98.07
2017-03-21T03:48:36.344Z,97.74
2017-03-21T03:49:18.019Z,97.83
2017-03-21T03:49:58.699Z,97.83
2017-03-21T03:50:39.314Z,97.74
2017-03-21T03:51:19.937Z,97.93
2017-03-21T03:52:00.533Z,98.03
2017-03-21T03:52:41.218Z,97.93
2017-03-21T03:53:21.798Z,97.93
2017-03-21T03:54:02.415Z,98.03
2017-03-21T03:54:44.071Z,97.93
2017-03-21T03:55:24.741Z,98.03
2017-03-21T03:56:05.367Z,98.03
2017-03-21T03:56:46.007Z,97.93
2017-03-21T03:57:26.658Z,97.93
2017-03-21T03:58:07.311Z,97.93
2017-03-21T03:58:47.967Z,97.88
2017-03-21T03:59:29.649Z,98.03
2017-03-21T04:00:10.299Z,98.03
2017-03-21T04:00:50.981Z,97.93
2017-03-21T04:01:31.651Z,97.93
2017-03-21T04:02:12.253Z,98.03
2017-03-21T04:02:52.925Z,98.03
2017-03-21T04:03:33.559Z,97.93
2017-03-21T04:04:15.056Z,97.93
2017-03-21T04:04:55.677Z,97.93
2017-03-21T04:05:36.362Z,98.03
2017-03-21T04:06:17.068Z,97.93
2017-03-21T04:06:57.747Z,97.93
2017-03-21T04:07:38.425Z,98.03
2017-03-21T04:08:19.072Z,98.12
2017-03-21T04:08:59.709Z,97.93
2017-03-21T04:09:40.369Z,98.03
2017-03-21T04:10:21.042Z,97.93
2017-03-21T04:11:01.679Z,97.93
2017-03-21T04:11:43.367Z,97.93
2017-03-21T04:12:24.004Z,97.93
2017-03-21T04:13:05.673Z,97.93
2017-03-21T04:13:46.343Z,97.93
2017-03-21T04:14:26.960Z,97.93
2017-03-21T04:15:07.519Z,98.03
2017-03-21T04:15:48.201Z,97.93
2017-03-21T04:16:28.832Z,97.93
2017-03-21T04:17:09.405Z,97.93
2017-03-21T04:17:50.117Z,97.93
2017-03-21T04:18:30.790Z,97.55
2017-03-21T04:19:11.419Z,97.93
2017-03-21T04:19:52.096Z,97.55
2017-03-21T04:20:32.727Z,97.64
2017-03-21T04:21:14.428Z,97.74
2017-03-21T04:21:55.090Z,97.93
2017-03-21T04:22:36.746Z,97.6
2017-03-21T04:23:17.820Z,97.78
2017-03-21T04:23:58.390Z,97.69
2017-03-21T04:24:39.032Z,97.69
2017-03-21T04:25:19.623Z,97.41
2017-03-21T04:26:01.233Z,97.69
2017-03-21T04:26:41.800Z,97.6
2017-03-21T04:27:22.471Z,97.69
2017-03-21T04:28:03.056Z,97.88
2017-03-21T04:28:45.080Z,97.97
2017-03-21T04:29:26.766Z,97.78
2017-03-21T04:30:07.442Z,97.97
2017-03-21T04:30:48.066Z,98.17
2017-03-21T04:31:28.714Z,97.97
2017-03-21T04:32:09.380Z,98.36
2017-03-21T04:32:50.025Z,97.69
2017-03-21T04:33:30.662Z,97.78
2017-03-21T04:34:11.260Z,97.88
2017-03-21T04:34:51.907Z,98.45
2017-03-21T04:35:32.543Z,98.64
2017-03-21T04:36:13.200Z,98.36
2017-03-21T04:36:54.892Z,98.36
2017-03-21T04:37:36.586Z,98.36
2017-03-21T04:38:17.200Z,98.07
2017-03-21T04:38:57.884Z,98.17
2017-03-21T04:39:38.558Z,98.17
2017-03-21T04:40:19.252Z,97.97
2017-03-21T04:40:59.815Z,98.74
2017-03-21T04:41:40.495Z,98.55
2017-03-21T04:42:22.093Z,99.02
2017-03-21T04:43:02.683Z,98.74
2017-03-21T04:43:43.260Z,98.74
2017-03-21T04:44:23.903Z,98.59
2017-03-21T04:45:04.506Z,98.5
2017-03-21T04:45:45.207Z,98.12
2017-03-21T04:46:25.793Z,98.4
2017-03-21T04:47:06.412Z,98.79
2017-03-21T04:47:48.051Z,98.4
2017-03-21T04:48:28.727Z,98.69
2017-03-21T04:49:09.313Z,98.4
2017-03-21T04:49:49.979Z,98.4
2017-03-21T04:50:30.646Z,98.64
2017-03-21T04:51:11.237Z,98.31
2017-03-21T04:51:51.798Z,98.4
2017-03-21T04:52:32.476Z,98.4
2017-03-21T04:53:13.191Z,98.4
2017-03-21T04:53:54.242Z,98.4
2017-03-21T04:54:34.915Z,98.4
2017-03-21T04:55:15.567Z,98.31
2017-03-21T04:55:56.226Z,98.4
2017-03-21T04:56:36.868Z,98.97
2017-03-21T04:57:17.517Z,98.79
2017-03-21T04:57:58.304Z,98.5
2017-03-21T04:58:38.931Z,98.69
2017-03-21T04:59:19.581Z,98.74
2017-03-21T05:00:01.255Z,98.83
2017-03-21T05:00:41.912Z,98.83
2017-03-21T05:01:22.569Z,98.83
2017-03-21T05:02:04.256Z,98.55
2017-03-21T05:02:44.888Z,98.55
2017-03-21T05:03:25.566Z,98.55
2017-03-21T05:04:06.210Z,98.55
2017-03-21T05:04:46.856Z,98.55
2017-03-21T05:05:27.543Z,98.64
2017-03-21T05:06:08.171Z,99.02
2017-03-21T05:06:48.835Z,98.64
2017-03-21T05:07:29.465Z,98.93
2017-03-21T05:08:10.122Z,98.88
2017-03-21T05:08:50.704Z,98.59
2017-03-21T05:09:31.316Z,98.64
2017-03-21T05:10:11.886Z,98.64
2017-03-21T05:10:52.551Z,98.74
2017-03-21T05:11:33.122Z,98.69
2017-03-21T05:12:13.724Z,98.88
2017-03-21T05:12:54.276Z,98.4
2017-03-21T05:13:35.902Z,98.69
2017-03-21T05:14:16.573Z,98.69
2017-03-21T05:14:57.226Z,98.69
2017-03-21T05:15:37.877Z,98.79
2017-03-21T05:16:18.532Z,98.69
2017-03-21T05:16:59.184Z,98.97
2017-03-21T05:17:40.850Z,99.16
2017-03-21T05:18:22.434Z,99.16
2017-03-21T05:19:03.077Z,99.16
2017-03-21T05:19:43.736Z,99.07
2017-03-21T05:20:24.421Z,99.07
2017-03-21T05:21:05.036Z,98.88
2017-03-21T05:21:45.699Z,98.97
2017-03-21T05:22:27.260Z,99.07
2017-03-21T05:23:07.958Z,99.16
2017-03-21T05:23:48.560Z,98.97
2017-03-21T05:24:29.290Z,98.88
2017-03-21T05:25:09.886Z,99.26
2017-03-21T05:25:50.538Z,98.88
2017-03-21T05:26:31.205Z,98.88
2017-03-21T05:27:11.855Z,99.16
2017-03-21T05:27:52.512Z,99.16
2017-03-21T05:28:35.077Z,98.97
2017-03-21T05:29:15.683Z,98.88
2017-03-21T05:29:56.257Z,98.79
2017-03-21T05:30:36.889Z,99.07
2017-03-21T05:31:17.483Z,99.44
2017-03-21T05:31:58.089Z,99.26
2017-03-21T05:32:38.663Z,99.26
2017-03-21T05:33:19.347Z,99.26
2017-03-21T05:34:00.004Z,99.26
2017-03-21T05:34:40.648Z,99.26
2017-03-21T05:35:21.318Z,98.97
2017-03-21T05:36:01.950Z,99.16
2017-03-21T05:36:42.817Z,99.02
2017-03-21T05:37:23.474Z,98.88
2017-03-21T05:38:04.139Z,98.93
2017-03-21T05:38:44.797Z,99.02
2017-03-21T05:39:25.372Z,99.26
2017-03-21T05:40:16.798Z,98.88
2017-03-21T05:40:57.411Z,98.74
2017-03-21T05:41:38.003Z,99.21
2017-03-21T05:42:18.604Z,99.11
2017-03-21T05:42:59.191Z,99.26
2017-03-21T05:43:39.767Z,98.97
2017-03-21T05:44:21.409Z,98.88
2017-03-21T05:45:01.982Z,98.97
2017-03-21T05:45:42.636Z,98.97
2017-03-21T05:46:23.876Z,98.97
2017-03-21T05:47:04.452Z,99.26
2017-03-21T05:47:45.087Z,99.07
2017-03-21T05:48:25.761Z,99.16
2017-03-21T05:49:06.420Z,99.07
2017-03-21T05:49:47.118Z,99.16
2017-03-21T05:50:27.720Z,98.97
2017-03-21T05:51:08.400Z,98.88
2017-03-21T05:51:49.009Z,98.88
2017-03-21T05:52:29.735Z,99.07
2017-03-21T05:53:10.314Z,99.16
2017-03-21T05:53:51.015Z,99.07
2017-03-21T05:54:31.607Z,98.97
2017-03-21T05:55:12.252Z,98.79
2017-03-21T05:55:52.928Z,98.79
2017-03-21T05:56:33.479Z,98.97
2017-03-21T05:57:14.144Z,98.79
2017-03-21T05:57:54.750Z,98.79
2017-03-21T05:58:35.336Z,98.59
2017-03-21T05:59:15.898Z,99.26
2017-03-21T05:59:57.474Z,98.97
2017-03-21T06:00:38.153Z,99.26
2017-03-21T06:01:18.780Z,99.54
2017-03-21T06:01:59.455Z,99.26
2017-03-21T06:02:41.109Z,99.54
2017-03-21T06:03:21.799Z,99.44
2017-03-21T06:04:03.453Z,99.54
2017-03-21T06:04:44.070Z,99.64
2017-03-21T06:05:24.649Z,99.35
2017-03-21T06:06:05.430Z,99.44
2017-03-21T06:06:46.058Z,99.44
2017-03-21T06:07:26.663Z,99.16
2017-03-21T06:08:07.252Z,99.07
2017-03-21T06:08:47.905Z,99.26
2017-03-21T06:09:28.560Z,99.16
2017-03-21T06:10:09.209Z,99.07
2017-03-21T06:10:50.885Z,99.07
2017-03-21T06:11:31.528Z,99.16
2017-03-21T06:12:13.214Z,99.73
2017-03-21T06:12:53.847Z,99.16
2017-03-21T06:13:34.547Z,99.44
2017-03-21T06:14:15.107Z,99.07
2017-03-21T06:14:55.762Z,99.44
2017-03-21T06:15:37.456Z,99.44
2017-03-21T06:16:18.449Z,99.16
2017-03-21T06:16:59.024Z,99.73
2017-03-21T06:17:39.680Z,99.26
2017-03-21T06:18:20.280Z,99.26
2017-03-21T06:19:00.987Z,99.26
2017-03-21T06:19:43.574Z,99.54
2017-03-21T06:20:24.222Z,99.54
2017-03-21T06:21:04.922Z,99.35
2017-03-21T06:21:45.618Z,99.44
2017-03-21T06:22:26.286Z,99.35
2017-03-21T06:23:06.934Z,99.3
2017-03-21T06:23:47.586Z,99.69
2017-03-21T06:24:28.137Z,99.5
2017-03-21T06:25:10.764Z,99.4
2017-03-21T06:25:51.375Z,99.3
2017-03-21T06:26:31.980Z,99.02
2017-03-21T06:27:12.582Z,99.3
2017-03-21T06:27:53.154Z,98.93
2017-03-21T06:28:33.712Z,99.3
2017-03-21T06:29:14.367Z,99.3
2017-03-21T06:29:55.063Z,99.3
2017-03-21T06:30:35.765Z,99.4
2017-03-21T06:31:16.374Z,99.11
2017-03-21T06:31:56.981Z,99.11
2017-03-21T06:32:37.677Z,99.3
2017-03-21T06:33:18.288Z,99.11
2017-03-21T06:33:58.835Z,99.3
2017-03-21T06:34:39.495Z,99.11
2017-03-21T06:35:20.109Z,99.4
2017-03-21T06:36:00.709Z,99.4
2017-03-21T06:36:41.358Z,99.4
2017-03-21T06:37:27.608Z,99.3
2017-03-21T06:38:08.178Z,99.4
2017-03-21T06:38:49.426Z,99.3
2017-03-21T06:39:30.009Z,99.3
2017-03-21T06:40:11.714Z,99.3
2017-03-21T06:40:58.142Z,99.3
2017-03-21T06:41:38.761Z,98.93
2017-03-21T06:42:21.422Z,99.11
2017-03-21T06:43:03.071Z,99.4
2017-03-21T06:43:43.650Z,98.64
2017-03-21T06:44:24.291Z,98.93
2017-03-21T06:45:04.949Z,99.11
2017-03-21T06:45:45.596Z,99.02
2017-03-21T06:46:26.259Z,99.02
2017-03-21T06:47:06.899Z,98.83
2017-03-21T06:47:47.554Z,98.93
2017-03-21T06:48:28.219Z,99.11
2017-03-21T06:49:08.898Z,99.21
2017-03-21T06:49:49.512Z,98.93
2017-03-21T06:50:31.094Z,99.21
2017-03-21T06:51:11.741Z,99.3
2017-03-21T06:51:52.463Z,98.93
2017-03-21T06:52:33.080Z,98.83
2017-03-21T06:53:14.736Z,98.88
2017-03-21T06:53:55.405Z,98.74
2017-03-21T06:54:36.038Z,98.36
2017-03-21T06:55:17.713Z,98.64
2017-03-21T06:55:58.384Z,98.45
2017-03-21T06:56:39.018Z,98.64
2017-03-21T06:57:20.722Z,98.93
2017-03-21T06:58:01.372Z,98.83
2017-03-21T06:58:42.001Z,98.83
2017-03-21T06:59:23.680Z,98.93
2017-03-21T07:00:04.304Z,98.74
2017-03-21T07:00:44.884Z,98.93
2017-03-21T07:01:25.532Z,99.21
2017-03-21T07:02:06.173Z,99.21
2017-03-21T07:02:46.738Z,99.02
2017-03-21T07:03:27.414Z,99.02
2017-03-21T07:04:08.021Z,99.21
2017-03-21T07:04:48.610Z,99.21
2017-03-21T07:05:29.241Z,99.21
2017-03-21T07:06:09.857Z,99.21
2017-03-21T07:06:50.540Z,99.21
2017-03-21T07:07:31.108Z,99.21
2017-03-21T07:08:11.794Z,99.21
2017-03-21T07:08:54.392Z,99.02
2017-03-21T07:09:35.004Z,98.93
2017-03-21T07:10:15.559Z,98.74
2017-03-21T07:10:56.223Z,98.64
2017-03-21T07:11:36.805Z,98.83
2017-03-21T07:12:17.407Z,98.6
2017-03-21T07:12:57.966Z,98.41
2017-03-21T07:13:38.626Z,98.6
2017-03-21T07:14:20.267Z,98.6
2017-03-21T07:15:00.924Z,98.31
2017-03-21T07:15:41.489Z,98.41
2017-03-21T07:16:24.105Z,97.93
2017-03-21T07:17:05.722Z,98.12
2017-03-21T07:17:46.405Z,97.64
2017-03-21T07:18:26.993Z,98.03
2017-03-21T07:19:12.434Z,97.31
2017-03-21T07:19:54.063Z,97.31
2017-03-21T07:20:34.664Z,97.45
2017-03-21T07:21:15.318Z,97.31
2017-03-21T07:21:55.928Z,97.03
2017-03-21T07:22:48.200Z,97.22
2017-03-21T07:23:28.765Z,96.46
2017-03-21T07:24:09.397Z,96.84
2017-03-21T07:24:54.871Z,96.08
2017-03-21T07:25:51.502Z,96.36
2017-03-21T07:26:32.152Z,96.31
2017-03-21T07:27:12.830Z,96.55
2017-03-21T07:45:30.673Z,94.27
2017-03-21T07:46:11.345Z,94.7
2017-03-21T07:46:51.935Z,94.74
2017-03-21T07:47:33.555Z,94.56
2017-03-21T07:48:14.137Z,94.65
2017-03-21T07:48:54.814Z,94.46
2017-03-21T07:49:36.405Z,94.08
2017-03-21T07:50:17.093Z,94.37
2017-03-21T07:50:57.675Z,94.37
2017-03-21T07:51:38.797Z,94.27
2017-03-21T07:52:19.437Z,94.37
2017-03-21T07:53:00.017Z,94.08
2017-03-21T07:53:40.592Z,93.7
2017-03-21T07:54:21.229Z,93.89
2017-03-21T07:55:01.868Z,93.7
2017-03-21T07:55:42.444Z,93.89
2017-03-21T07:56:23.100Z,93.98
2017-03-21T07:57:03.774Z,93.98
2017-03-21T07:57:44.335Z,93.79
2017-03-21T07:58:24.958Z,94.08
2017-03-21T07:59:06.599Z,94.08
2017-03-21T07:59:47.158Z,94.08
2017-03-21T08:00:27.816Z,93.6
2017-03-21T08:01:08.459Z,93.7
2017-03-21T08:01:49.140Z,93.04
2017-03-21T08:02:29.785Z,93.13
2017-03-21T08:03:10.429Z,93.13
2017-03-21T08:03:51.135Z,93.32
2017-03-21T08:04:31.745Z,92.56
2017-03-21T08:05:12.331Z,92.84
2017-03-21T08:05:52.929Z,92.32
2017-03-21T08:06:33.505Z,92.51
2017-03-21T08:07:14.153Z,92.22
2017-03-21T08:07:54.745Z,91.94
2017-03-21T08:08:35.338Z,91.56
2017-03-21T08:09:15.913Z,91.75
2017-03-21T08:09:56.554Z,91.37
2017-03-21T08:10:37.194Z,91.56
2017-03-21T08:11:17.792Z,91.08
2017-03-21T08:11:58.411Z,91.08
2017-03-21T08:12:39.043Z,90.89
2017-03-21T08:13:19.594Z,90.99
2017-03-21T08:14:00.261Z,91.27
2017-03-21T08:14:41.929Z,91.08
2017-03-21T08:15:22.504Z,91.37
2017-03-21T08:16:03.185Z,90.8
2017-03-21T08:16:43.789Z,90.32
2017-03-21T08:17:24.561Z,90.61
2017-03-21T08:18:06.249Z,90.89
2017-03-21T08:18:46.911Z,90.51
2017-03-21T08:19:27.585Z,89.94
2017-03-21T08:20:08.185Z,90.27
2017-03-21T08:20:49.844Z,90.08
2017-03-21T08:21:30.538Z,89.98
2017-03-21T08:22:11.188Z,89.7
2017-03-21T08:22:51.863Z,89.41
2017-03-21T08:23:32.575Z,89.22
2017-03-21T08:24:14.903Z,89.32
2017-03-21T08:24:55.554Z,88.93
2017-03-21T08:25:37.195Z,89.03
2017-03-21T08:26:17.982Z,88.93
2017-03-21T08:27:00.508Z,89.13
2017-03-21T08:27:41.333Z,89.32
2017-03-21T08:28:21.947Z,89.37
2017-03-21T08:29:02.847Z,88.84
2017-03-21T08:29:43.482Z,88.6
2017-03-21T08:30:24.158Z,88.32
2017-03-21T08:31:04.762Z,88.23
2017-03-21T08:31:45.442Z,88.32
2017-03-21T08:32:26.080Z,88.65
2017-03-21T08:33:06.751Z,87.94
2017-03-21T08:33:47.386Z,88.13
2017-03-21T08:34:28.056Z,88.23
2017-03-21T08:35:08.632Z,88.13
2017-03-21T08:35:49.231Z,88.04
2017-03-21T08:36:29.804Z,88.23
2017-03-21T08:37:10.458Z,87.94
2017-03-21T08:37:51.058Z,87.46
2017-03-21T08:38:31.643Z,87.75
2017-03-21T08:39:12.224Z,87.08
2017-03-21T08:39:52.917Z,87.41
2017-03-21T08:40:33.518Z,87.7
2017-03-21T08:41:14.168Z,87.51
2017-03-21T08:41:54.843Z,87.51
2017-03-21T08:42:37.557Z,87.51
2017-03-21T08:43:18.190Z,87.13
2017-03-21T08:43:58.846Z,87.03
2017-03-21T08:44:40.487Z,86.75
2017-03-21T08:45:21.062Z,86.75
2017-03-21T08:46:01.711Z,86.55
2017-03-21T08:46:42.348Z,86.36
2017-03-21T08:47:22.985Z,86.46
2017-03-21T08:48:03.587Z,86.55
2017-03-21T08:48:44.223Z,86.65
2017-03-21T08:49:24.785Z,85.8
2017-03-21T08:50:05.483Z,85.8
2017-03-21T08:50:47.138Z,85.51
2017-03-21T08:51:29.774Z,85.32
2017-03-21T08:52:10.390Z,85.17
2017-03-21T08:52:50.990Z,85.03
2017-03-21T08:53:31.589Z,84.6
2017-03-21T08:54:12.186Z,84.98
2017-03-21T08:54:52.781Z,84.6
2017-03-21T08:55:33.392Z,84.03
2017-03-21T08:56:14.166Z,83.55
2017-03-21T08:56:54.798Z,83.55
2017-03-21T08:57:35.380Z,83.45
2017-03-21T08:58:18.254Z,83.07
2017-03-21T08:58:58.860Z,82.41
2017-03-21T08:59:39.458Z,82.6
2017-03-21T09:00:20.028Z,82.31
2017-03-21T09:01:00.669Z,81.84
2017-03-21T09:01:41.317Z,81.65
2017-03-21T09:02:21.971Z,81.46
2017-03-21T09:03:02.547Z,81.49
2017-03-21T09:03:43.175Z,81.02
2017-03-21T09:04:23.870Z,81.02
2017-03-21T09:05:04.530Z,81.21
2017-03-21T09:05:45.200Z,80.64